Archival Weather

Chicago O'Hare International

Chicago, Illinois (KORD)

Report from: Saturday, March 31, 2012 6:51 AM CDT
Current time: Monday, June 17, 2024 6:16 AM CDT

Current weather – Weather history – Daily summaries
Weather forecast

Temperature3.9°C (39.0°F)
Wind chill0.8°C (33.4°F)
Dew point0.6°C (33.1°F)
Winds 7 kts (3.6 m/s, 8.1 mph) East-Northeast (60°)
Visibility10 mi. (16.1 km)
Clouds Ceiling: Overcast 1,000 ft. (305 m)
Altimeter29.97 in.Hg (1015 mB)
Precip last 24 hours0.51 in. (13 mm)
Relative humidity79 %
Density altitude-1,315 ft. (-401 m)
Sea-level pressure101.5 kPa (1015 mB, 29.98 in.Hg)
Max temp last 6 hours5.0°C (41.0°F)
Min temp last 6 hours3.9°C (39.0°F)
Remarks System requires maintenance
Automated weather observing station with precipitation discriminator
Pressure rising, then falling
Flight conditions Marginal Visual Meteorological Conditions
Raw data2012-03-31 11:51 KORD 311151Z 06007KT 10SM OVC010 04/01 A2997 RMK AO2 SLP152 70051 T00390006 10050 20039 50002 $
An error has occurred. This application may no longer respond until reloaded. Reload 🗙